Kine — C6WT4 — position and weather

sailwx.info

Track history (hours):
 
Tides and Currents Weather Stations Pressure Air Temp Water Temp Dewpoint Dewpoint Depression Visibility Wind Speed Wind Dir Waves Ship Positions

Kine

Last reported at 2015-May-30 03:28 UTC. Time now 2015-May-30 04:23 UTC.
Position N 40°58' W 008°59'.

Length 89 m; draft 5.2 m.

Type: Cargo ship. MMSI: 311117000.

Date/timePositionNaut miles runAvg speedWind from/ knotsBaromVisibWave heightAir tempDewpointWater temp
2015-May-30 03:28N 40°58' W 008°59'207 5.7
2015-May-28 15:23N 43°38' W 006°02'3 0.1
2015-May-27 13:32N 43°40' W 005°58'250 8.9
2015-May-26 09:33N 47°50' W 005°57'9 9.0
2015-May-26 08:33N 47°59' W 005°56'9 8.8
2015-May-26 07:33N 48°08' W 005°56'18 8.9
2015-May-26 05:33N 48°26' W 005°56'19 9.2
2015-May-26 03:33N 48°44' W 005°52'10 9.7
2015-May-26 02:33N 48°53' W 005°45'258 9.2
2015-May-24 22:33N 50°36' E 000°20'10 9.9
2015-May-24 21:33N 50°39' E 000°35'1010.3
2015-May-24 20:33N 50°45' E 000°48'35 8.6
2015-May-24 16:33N 51°07' E 001°31'7 7.4
2015-May-24 15:33N 51°13' E 001°37'9 8.9
2015-May-24 14:33N 51°21' E 001°41'10 9.9
2015-May-24 13:33N 51°31' E 001°43'1110.9
2015-May-24 12:33N 51°42' E 001°44'1110.7
2015-May-24 11:33N 51°53' E 001°45'1010.2
2015-May-24 10:33N 52°03' E 001°47'10 9.5
2015-May-24 09:33N 52°12' E 001°48'10 8.6
2015-May-24 08:24N 52°22' E 001°50'7 7.8
2015-May-24 07:33N 52°29' E 001°52'7 7.1
2015-May-24 06:33N 52°36' E 001°52'6 6.4
2015-May-24 05:33N 52°42' E 001°48'8 7.1
2015-May-24 04:25N 52°48' E 001°41'7 7.9
2015-May-24 03:33N 52°54' E 001°35'9 8.7
2015-May-24 02:33N 53°02' E 001°27'11 9.5
2015-May-24 01:26N 53°11' E 001°18'41 9.9
2015-May-23 21:18N 53°45' E 000°41'810.5
2015-May-23 20:33N 53°52' E 000°33'1010.4
2015-May-23 19:33N 54°01' E 000°24'1010.2
2015-May-23 18:33N 54°09' E 000°14'10 9.7
2015-May-23 17:33N 54°17' E 000°05'9 9.1
2015-May-23 16:33N 54°25' W 000°04'8 8.3
2015-May-23 15:33N 54°32' W 000°12'8 7.9
2015-May-23 14:33N 54°38' W 000°20'8 7.6
2015-May-23 13:33N 54°44' W 000°27'10 7.9
2015-May-23 12:21N 54°52' W 000°36'7 8.2
2015-May-23 11:31N 54°58' W 000°43'8 8.7
2015-May-23 10:33N 55°05' W 000°51'9 8.9
2015-May-23 09:31N 55°12' W 001°01'  
Track history (hours):
 
Tides and Currents Weather Stations Pressure Air Temp Water Temp Dewpoint Dewpoint Depression Visibility Wind Speed Wind Dir Waves Ship Positions

Kine

Last reported at 2015-May-30 03:28 UTC. Time now 2015-May-30 04:23 UTC.
Position N 40°58' W 008°59'.

Length 89 m; draft 5.2 m.

Type: Cargo ship. MMSI: 311117000.

Date/timePositionNaut miles runAvg speedWind from/ knotsBaromVisibWave heightAir tempDewpointWater temp
2015-May-30 03:28N 40°58' W 008°59'207 5.7
2015-May-28 15:23N 43°38' W 006°02'3 0.1
2015-May-27 13:32N 43°40' W 005°58'250 8.9
2015-May-26 09:33N 47°50' W 005°57'9 9.0
2015-May-26 08:33N 47°59' W 005°56'9 8.8
2015-May-26 07:33N 48°08' W 005°56'18 8.9
2015-May-26 05:33N 48°26' W 005°56'19 9.2
2015-May-26 03:33N 48°44' W 005°52'10 9.7
2015-May-26 02:33N 48°53' W 005°45'258 9.2
2015-May-24 22:33N 50°36' E 000°20'10 9.9
2015-May-24 21:33N 50°39' E 000°35'1010.3
2015-May-24 20:33N 50°45' E 000°48'35 8.6
2015-May-24 16:33N 51°07' E 001°31'7 7.4
2015-May-24 15:33N 51°13' E 001°37'9 8.9
2015-May-24 14:33N 51°21' E 001°41'10 9.9
2015-May-24 13:33N 51°31' E 001°43'1110.9
2015-May-24 12:33N 51°42' E 001°44'1110.7
2015-May-24 11:33N 51°53' E 001°45'1010.2
2015-May-24 10:33N 52°03' E 001°47'10 9.5
2015-May-24 09:33N 52°12' E 001°48'10 8.6
2015-May-24 08:24N 52°22' E 001°50'7 7.8
2015-May-24 07:33N 52°29' E 001°52'7 7.1
2015-May-24 06:33N 52°36' E 001°52'6 6.4
2015-May-24 05:33N 52°42' E 001°48'8 7.1
2015-May-24 04:25N 52°48' E 001°41'7 7.9
2015-May-24 03:33N 52°54' E 001°35'9 8.7
2015-May-24 02:33N 53°02' E 001°27'11 9.5
2015-May-24 01:26N 53°11' E 001°18'41 9.9
2015-May-23 21:18N 53°45' E 000°41'810.5
2015-May-23 20:33N 53°52' E 000°33'1010.4
2015-May-23 19:33N 54°01' E 000°24'1010.2
2015-May-23 18:33N 54°09' E 000°14'10 9.7
2015-May-23 17:33N 54°17' E 000°05'9 9.1
2015-May-23 16:33N 54°25' W 000°04'8 8.3
2015-May-23 15:33N 54°32' W 000°12'8 7.9
2015-May-23 14:33N 54°38' W 000°20'8 7.6
2015-May-23 13:33N 54°44' W 000°27'10 7.9
2015-May-23 12:21N 54°52' W 000°36'7 8.2
2015-May-23 11:31N 54°58' W 000°43'8 8.7
2015-May-23 10:33N 55°05' W 000°51'9 8.9
2015-May-23 09:31N 55°12' W 001°01'  

Dump ship's entire track history